Time;durP1;ratioP1;P1;durP2;ratioP2;P2;SDS_P1;SDS_P2;PMS_P1;PMS_P2;Temp;Humidity;BMP_temperature;BMP_pressure;BME280_temperature;BME280_humidity;BME280_pressure;Samples;Min_cycle;Max_cycle;Signal;HPM_P1;HPM_P2
2021/10/19 00:00:19;;;;;;;;;18.50;16.50;;;;;;;;5077938;27;45517;-79
2021/10/19 00:02:45;;;;;;;;;16.00;15.75;;;;;;;;5081561;27;45303;-79
2021/10/19 00:05:10;;;;;;;;;15.00;14.00;;;;;;;;5079863;27;45475;-79
2021/10/19 00:07:36;;;;;;;;;17.00;15.00;;;;;;;;5079965;27;45228;-79
2021/10/19 00:10:03;;;;;;;;;18.25;16.00;;;;;;;;5078686;27;45956;-78
2021/10/19 00:12:28;;;;;;;;;17.75;14.50;;;;;;;;5075875;27;45491;-78
2021/10/19 00:14:53;;;;;;;;;20.00;18.00;;;;;;;;5080796;27;45267;-78
2021/10/19 00:17:19;;;;;;;;;20.00;16.50;;;;;;;;5078393;27;45461;-81
2021/10/19 00:19:44;;;;;;;;;13.00;12.75;;;;;;;;5079390;27;46086;-78
2021/10/19 00:22:10;;;;;;;;;18.75;17.25;;;;;;;;5079400;27;45557;-80
2021/10/19 00:24:35;;;;;;;;;15.50;15.50;;;;;;;;5075057;28;45317;-79
2021/10/19 00:27:02;;;;;;;;;19.00;17.00;;;;;;;;5081309;27;45595;-78
2021/10/19 00:29:27;;;;;;;;;19.00;19.00;;;;;;;;5078990;27;45700;-80
2021/10/19 00:31:52;;;;;;;;;17.00;17.00;;;;;;;;5078577;27;45497;-77
2021/10/19 00:34:18;;;;;;;;;16.00;14.75;;;;;;;;5079140;27;45441;-79
2021/10/19 00:36:43;;;;;;;;;15.75;14.25;;;;;;;;5075047;27;45388;-79
2021/10/19 00:39:08;;;;;;;;;16.25;14.75;;;;;;;;5079739;27;45428;-78
2021/10/19 00:41:33;;;;;;;;;13.50;13.50;;;;;;;;5079224;27;45469;-79
2021/10/19 00:43:59;;;;;;;;;16.25;13.25;;;;;;;;5079365;27;45336;-76
2021/10/19 00:46:24;;;;;;;;;14.00;12.75;;;;;;;;5079442;27;45419;-78
2021/10/19 00:48:49;;;;;;;;;14.75;14.00;;;;;;;;5076176;27;46049;-77
2021/10/19 00:51:15;;;;;;;;;18.00;16.25;;;;;;;;5078392;27;45420;-78
2021/10/19 00:53:41;;;;;;;;;15.50;15.00;;;;;;;;5079070;27;45237;-78
2021/10/19 00:56:06;;;;;;;;;18.00;16.25;;;;;;;;5058992;28;45410;-78
2021/10/19 00:58:32;;;;;;;;;18.75;16.00;;;;;;;;5078894;27;47012;-78
2021/10/19 01:00:57;;;;;;;;;12.75;12.75;;;;;;;;5077046;27;45434;-78
2021/10/19 01:03:22;;;;;;;;;15.75;14.75;;;;;;;;5076373;27;45405;-78
2021/10/19 01:05:47;;;;;;;;;12.50;11.50;;;;;;;;5080979;27;45405;-78
2021/10/19 01:08:13;;;;;;;;;12.75;12.75;;;;;;;;5078645;27;47111;-78
2021/10/19 01:10:38;;;;;;;;;14.50;14.00;;;;;;;;5077812;27;45641;-77
2021/10/19 01:13:04;;;;;;;;;11.00;11.00;;;;;;;;5078275;27;45258;-78
2021/10/19 01:15:34;;;;;;;;;15.25;13.00;;;;;;;;5075035;27;45267;-77
2021/10/19 01:17:59;;;;;;;;;15.50;12.00;;;;;;;;5080498;27;47003;-78
2021/10/19 01:20:32;;;;;;;;;17.00;13.75;;;;;;;;5078723;27;45419;-78
2021/10/19 01:22:58;;;;;;;;;12.75;12.75;;;;;;;;5078940;27;45478;-78
2021/10/19 01:25:24;;;;;;;;;12.25;10.75;;;;;;;;5060046;27;45554;-79
2021/10/19 01:27:54;;;;;;;;;14.75;12.00;;;;;;;;5076047;27;46586;-77
2021/10/19 01:30:20;;;;;;;;;11.50;9.00;;;;;;;;5077184;27;45353;-79
2021/10/19 01:32:46;;;;;;;;;14.00;13.25;;;;;;;;5078127;27;45494;-78
2021/10/19 01:35:11;;;;;;;;;9.75;8.75;;;;;;;;5076926;27;45322;-78
2021/10/19 01:37:37;;;;;;;;;10.75;10.25;;;;;;;;5078264;27;46189;-78
2021/10/19 01:40:03;;;;;;;;;10.25;9.25;;;;;;;;5077045;27;45427;-78
2021/10/19 01:42:32;;;;;;;;;14.75;13.75;;;;;;;;5073124;27;45536;-78
2021/10/19 01:44:57;;;;;;;;;11.00;11.00;;;;;;;;5080313;27;45427;-78
2021/10/19 01:47:22;;;;;;;;;15.00;11.25;;;;;;;;5078140;27;46746;-78
2021/10/19 01:49:48;;;;;;;;;12.00;10.00;;;;;;;;5078016;27;45318;-78
2021/10/19 01:52:13;;;;;;;;;9.00;8.00;;;;;;;;5078604;27;45454;-78
2021/10/19 01:54:38;;;;;;;;;13.25;12.25;;;;;;;;5073534;27;45466;-77
2021/10/19 01:57:03;;;;;;;;;13.00;13.00;;;;;;;;5080092;27;47359;-78
2021/10/19 01:59:28;;;;;;;;;13.75;13.50;;;;;;;;5077878;27;45383;-79
2021/10/19 02:01:54;;;;;;;;;11.25;10.00;;;;;;;;5077901;27;45488;-79
2021/10/19 02:04:19;;;;;;;;;8.50;8.50;;;;;;;;5078152;27;45302;-79
2021/10/19 02:06:44;;;;;;;;;10.25;10.25;;;;;;;;5056211;27;47931;-79
2021/10/19 02:09:09;;;;;;;;;11.00;11.00;;;;;;;;5078653;27;45414;-79
2021/10/19 02:11:34;;;;;;;;;13.50;11.00;;;;;;;;5077292;27;45424;-79
2021/10/19 02:14:00;;;;;;;;;14.25;12.75;;;;;;;;5058161;28;45430;-79
2021/10/19 02:16:25;;;;;;;;;13.25;11.50;;;;;;;;5077741;27;45484;-79
2021/10/19 02:18:50;;;;;;;;;14.75;12.75;;;;;;;;5072877;27;45477;-77
2021/10/19 02:21:15;;;;;;;;;15.00;13.75;;;;;;;;5077180;27;45362;-78
2021/10/19 02:23:41;;;;;;;;;11.00;9.00;;;;;;;;5078702;27;45404;-77
2021/10/19 02:26:06;;;;;;;;;10.50;9.50;;;;;;;;5077553;27;45989;-77
2021/10/19 02:28:31;;;;;;;;;12.50;11.50;;;;;;;;5077806;27;45345;-77
2021/10/19 02:30:56;;;;;;;;;14.25;12.50;;;;;;;;5075879;27;45352;-77
2021/10/19 02:33:21;;;;;;;;;12.50;10.75;;;;;;;;5075130;27;45276;-78
2021/10/19 02:35:47;;;;;;;;;14.75;11.00;;;;;;;;5079454;27;45411;-77
2021/10/19 02:38:12;;;;;;;;;11.75;9.00;;;;;;;;5077231;27;45414;-77
2021/10/19 02:40:37;;;;;;;;;12.25;10.75;;;;;;;;5077693;27;45315;-77
2021/10/19 02:43:03;;;;;;;;;14.00;12.50;;;;;;;;5076877;27;45505;-76
2021/10/19 02:45:28;;;;;;;;;13.25;12.25;;;;;;;;5073693;27;46116;-77
2021/10/19 02:47:53;;;;;;;;;12.50;11.50;;;;;;;;5079533;27;45303;-77
2021/10/19 02:50:18;;;;;;;;;11.50;9.75;;;;;;;;5077090;27;45458;-77
2021/10/19 02:52:43;;;;;;;;;9.75;9.25;;;;;;;;5075429;27;45276;-78
2021/10/19 02:55:10;;;;;;;;;15.75;13.50;;;;;;;;5080618;27;46346;-78
2021/10/19 02:57:35;;;;;;;;;8.50;8.00;;;;;;;;5060353;28;45365;-78
2021/10/19 03:00:00;;;;;;;;;12.25;10.00;;;;;;;;5082841;27;45991;-78
2021/10/19 03:02:26;;;;;;;;;9.25;7.50;;;;;;;;5080876;27;45346;-78
2021/10/19 03:04:51;;;;;;;;;14.00;10.25;;;;;;;;5080690;27;46292;-76
2021/10/19 03:07:16;;;;;;;;;13.00;11.00;;;;;;;;5080400;27;45288;-76
2021/10/19 03:09:42;;;;;;;;;13.75;12.00;;;;;;;;5077250;27;45331;-76
2021/10/19 03:12:07;;;;;;;;;13.00;13.00;;;;;;;;5082005;27;45251;-79
2021/10/19 03:14:32;;;;;;;;;13.50;11.00;;;;;;;;5081018;27;47175;-77
2021/10/19 03:16:57;;;;;;;;;14.25;12.75;;;;;;;;5080517;27;45532;-77
2021/10/19 03:19:23;;;;;;;;;11.75;10.25;;;;;;;;5080416;27;45241;-77
2021/10/19 03:21:48;;;;;;;;;13.00;11.75;;;;;;;;5077321;27;45422;-78
2021/10/19 03:24:13;;;;;;;;;10.00;10.00;;;;;;;;5079769;27;46997;-77
2021/10/19 03:26:38;;;;;;;;;11.00;9.75;;;;;;;;5081532;27;45506;-77
2021/10/19 03:29:04;;;;;;;;;12.25;10.25;;;;;;;;5079290;27;45344;-77
2021/10/19 03:31:34;;;;;;;;;16.00;14.00;;;;;;;;5078615;27;45554;-78
2021/10/19 03:34:00;;;;;;;;;14.00;10.00;;;;;;;;5078750;27;46277;-77
2021/10/19 03:36:25;;;;;;;;;15.00;12.00;;;;;;;;5076210;27;45280;-78
2021/10/19 03:38:50;;;;;;;;;11.00;10.00;;;;;;;;5082406;27;45287;-78
2021/10/19 03:41:15;;;;;;;;;9.00;9.00;;;;;;;;5080227;27;45438;-78
2021/10/19 03:43:40;;;;;;;;;8.25;6.25;;;;;;;;5079744;27;45399;-78
2021/10/19 03:46:05;;;;;;;;;13.75;12.00;;;;;;;;5075787;28;45459;-78
2021/10/19 03:48:31;;;;;;;;;15.75;14.50;;;;;;;;5092172;27;45496;-78
2021/10/19 03:50:56;;;;;;;;;11.00;11.00;;;;;;;;5081723;27;45243;-78
2021/10/19 03:53:21;;;;;;;;;13.50;10.25;;;;;;;;5079917;27;46119;-78
2021/10/19 03:55:48;;;;;;;;;10.25;10.25;;;;;;;;5079591;27;46391;-78
2021/10/19 03:58:13;;;;;;;;;11.25;11.25;;;;;;;;5079905;27;45472;-77
2021/10/19 04:00:38;;;;;;;;;12.75;11.00;;;;;;;;5075540;27;45307;-77
2021/10/19 04:03:04;;;;;;;;;12.00;8.00;;;;;;;;5081548;27;46560;-78
2021/10/19 04:05:29;;;;;;;;;12.75;10.50;;;;;;;;5077753;27;45195;-77
2021/10/19 04:07:54;;;;;;;;;11.00;10.00;;;;;;;;5078346;27;45288;-78
2021/10/19 04:10:21;;;;;;;;;10.25;10.00;;;;;;;;5079338;27;45441;-77
2021/10/19 04:12:47;;;;;;;;;10.25;10.00;;;;;;;;5076393;27;46354;-77
2021/10/19 04:15:12;;;;;;;;;10.00;10.00;;;;;;;;5078999;27;45311;-78
2021/10/19 04:17:37;;;;;;;;;11.75;11.50;;;;;;;;5080241;27;45349;-78
2021/10/19 04:20:04;;;;;;;;;7.75;7.75;;;;;;;;5078896;27;45433;-78
2021/10/19 04:22:29;;;;;;;;;10.50;10.50;;;;;;;;5079573;27;47092;-78
2021/10/19 04:24:54;;;;;;;;;11.25;9.50;;;;;;;;5077194;27;45407;-77
2021/10/19 04:27:20;;;;;;;;;12.00;11.00;;;;;;;;5077032;27;45766;-77
2021/10/19 04:29:45;;;;;;;;;6.50;3.50;;;;;;;;5080557;27;45524;-78
2021/10/19 04:32:10;;;;;;;;;11.25;9.75;;;;;;;;5079112;27;46037;-79
2021/10/19 04:34:35;;;;;;;;;10.75;10.75;;;;;;;;5078347;27;45364;-77
2021/10/19 04:37:00;;;;;;;;;11.25;11.25;;;;;;;;5075608;27;49099;-77
2021/10/19 04:39:27;;;;;;;;;10.50;10.00;;;;;;;;5075192;27;45536;-78
2021/10/19 04:41:53;;;;;;;;;9.50;8.00;;;;;;;;5080256;27;47055;-77
2021/10/19 04:44:18;;;;;;;;;12.75;9.25;;;;;;;;5078327;27;45597;-78
2021/10/19 04:46:43;;;;;;;;;10.75;9.50;;;;;;;;5077260;27;45314;-78
2021/10/19 04:49:08;;;;;;;;;12.25;10.25;;;;;;;;5076789;27;45363;-78
2021/10/19 04:51:34;;;;;;;;;11.50;11.25;;;;;;;;5073222;27;47545;-78
2021/10/19 04:53:59;;;;;;;;;8.50;8.00;;;;;;;;5080111;27;45458;-78
2021/10/19 04:56:24;;;;;;;;;14.25;9.00;;;;;;;;5084739;27;45308;-79
2021/10/19 04:58:49;;;;;;;;;17.75;13.25;;;;;;;;5084220;27;45541;-78
2021/10/19 05:01:14;;;;;;;;;10.50;8.50;;;;;;;;5078185;27;46936;-79
2021/10/19 05:03:42;;;;;;;;;13.25;11.50;;;;;;;;5074098;27;45562;-79
2021/10/19 05:06:07;;;;;;;;;12.75;11.75;;;;;;;;5079341;27;45570;-78
2021/10/19 05:08:33;;;;;;;;;13.00;11.50;;;;;;;;5077997;27;45334;-79
2021/10/19 05:10:58;;;;;;;;;9.75;9.00;;;;;;;;5077941;27;45435;-79
2021/10/19 05:13:23;;;;;;;;;18.00;16.25;;;;;;;;5076917;27;45576;-78
2021/10/19 05:15:48;;;;;;;;;12.25;11.75;;;;;;;;5074940;27;45365;-78
2021/10/19 05:18:13;;;;;;;;;13.75;13.25;;;;;;;;5076795;27;45307;-78
2021/10/19 05:20:39;;;;;;;;;15.50;14.75;;;;;;;;5078233;27;47373;-78
2021/10/19 05:23:04;;;;;;;;;13.75;11.00;;;;;;;;5076945;27;45303;-79
2021/10/19 05:25:29;;;;;;;;;13.50;13.50;;;;;;;;5076387;27;45362;-74
2021/10/19 05:27:54;;;;;;;;;14.00;13.50;;;;;;;;5074610;27;45682;-78
2021/10/19 05:30:20;;;;;;;;;15.75;14.00;;;;;;;;5075791;27;46403;-77
2021/10/19 05:32:45;;;;;;;;;13.25;13.25;;;;;;;;5079024;27;45422;-79
2021/10/19 05:35:11;;;;;;;;;13.00;12.00;;;;;;;;5076993;27;45500;-79
2021/10/19 05:37:36;;;;;;;;;13.00;11.25;;;;;;;;5075398;27;45299;-78
2021/10/19 05:40:02;;;;;;;;;19.25;15.50;;;;;;;;5076112;27;46317;-77
2021/10/19 05:42:28;;;;;;;;;13.25;12.25;;;;;;;;5073479;27;45299;-78
2021/10/19 05:44:53;;;;;;;;;14.00;12.00;;;;;;;;5079416;27;45300;-79
2021/10/19 05:47:19;;;;;;;;;11.00;11.00;;;;;;;;5077355;27;45476;-78
2021/10/19 05:49:44;;;;;;;;;12.50;10.25;;;;;;;;5075491;27;46082;-79
2021/10/19 05:52:09;;;;;;;;;18.50;14.25;;;;;;;;5075072;27;45426;-79
2021/10/19 05:54:34;;;;;;;;;16.00;14.75;;;;;;;;5072218;27;45415;-78
2021/10/19 05:56:59;;;;;;;;;17.50;15.50;;;;;;;;5078848;27;45242;-77
2021/10/19 05:59:25;;;;;;;;;14.00;14.00;;;;;;;;5076985;27;45337;-78
2021/10/19 06:01:50;;;;;;;;;12.25;12.25;;;;;;;;5076518;27;45451;-77
2021/10/19 06:04:15;;;;;;;;;20.00;16.50;;;;;;;;5075482;27;45303;-78
2021/10/19 06:06:40;;;;;;;;;13.75;11.75;;;;;;;;5072915;27;45533;-79
2021/10/19 06:09:06;;;;;;;;;14.25;14.25;;;;;;;;5059847;28;47003;-78
2021/10/19 06:11:32;;;;;;;;;11.00;11.00;;;;;;;;5075402;27;45388;-79
2021/10/19 06:13:57;;;;;;;;;17.50;15.25;;;;;;;;5076277;27;45611;-78
2021/10/19 06:16:22;;;;;;;;;17.75;17.75;;;;;;;;5076178;27;45511;-77
2021/10/19 06:18:47;;;;;;;;;20.00;16.50;;;;;;;;5072312;27;45954;-77
2021/10/19 06:21:13;;;;;;;;;16.00;12.50;;;;;;;;5075672;27;45311;-78
2021/10/19 06:23:38;;;;;;;;;20.00;18.00;;;;;;;;5076120;27;45392;-79
2021/10/19 06:26:07;;;;;;;;;18.25;15.00;;;;;;;;5076015;27;45408;-78
2021/10/19 06:28:33;;;;;;;;;15.00;15.00;;;;;;;;5076065;27;46944;-78
2021/10/19 06:30:58;;;;;;;;;14.50;11.00;;;;;;;;5077499;27;45615;-78
2021/10/19 06:33:23;;;;;;;;;19.25;18.00;;;;;;;;5076917;27;45373;-78
2021/10/19 06:35:48;;;;;;;;;15.50;13.00;;;;;;;;5081654;27;45465;-79
2021/10/19 06:38:14;;;;;;;;;13.50;10.25;;;;;;;;5079646;27;46342;-78
2021/10/19 06:40:39;;;;;;;;;13.75;13.75;;;;;;;;5079669;27;45307;-77
2021/10/19 06:43:05;;;;;;;;;14.50;13.50;;;;;;;;5078042;27;45577;-79
2021/10/19 06:45:31;;;;;;;;;15.75;14.00;;;;;;;;5075262;27;45434;-79
2021/10/19 06:47:56;;;;;;;;;17.50;14.00;;;;;;;;5080733;27;47120;-79
2021/10/19 06:50:21;;;;;;;;;14.75;13.25;;;;;;;;5078746;27;45457;-79
2021/10/19 06:52:46;;;;;;;;;13.00;9.50;;;;;;;;5079170;27;45268;-77
2021/10/19 06:55:12;;;;;;;;;12.50;11.25;;;;;;;;5078634;27;45355;-78
2021/10/19 06:57:41;;;;;;;;;13.00;9.75;;;;;;;;5074619;27;46153;-78
2021/10/19 07:00:07;;;;;;;;;9.50;8.00;;;;;;;;5089582;27;45517;-80
2021/10/19 07:02:33;;;;;;;;;13.25;11.25;;;;;;;;5079879;27;45387;-80
2021/10/19 07:04:59;;;;;;;;;8.75;8.75;;;;;;;;5087122;27;45428;-76
2021/10/19 07:07:24;;;;;;;;;16.50;14.25;;;;;;;;5069749;27;48184;-76
2021/10/19 07:09:49;;;;;;;;;10.50;10.25;;;;;;;;5074162;27;45237;-77
2021/10/19 07:12:14;;;;;;;;;15.50;14.00;;;;;;;;5077705;27;45282;-79
2021/10/19 07:14:39;;;;;;;;;11.75;11.50;;;;;;;;5079462;27;45345;-78
2021/10/19 07:17:05;;;;;;;;;14.00;13.25;;;;;;;;5078654;27;45651;-78
2021/10/19 07:19:30;;;;;;;;;16.00;13.75;;;;;;;;5078599;27;45509;-77
2021/10/19 07:21:55;;;;;;;;;14.25;12.50;;;;;;;;5075266;27;45266;-79
2021/10/19 07:24:21;;;;;;;;;9.50;9.50;;;;;;;;5076419;27;45487;-77
2021/10/19 07:26:46;;;;;;;;;17.00;12.00;;;;;;;;5077623;27;46357;-78
2021/10/19 07:29:12;;;;;;;;;13.75;12.50;;;;;;;;5078560;27;45417;-79
2021/10/19 07:31:37;;;;;;;;;10.75;10.00;;;;;;;;5078782;27;45661;-78
2021/10/19 07:34:03;;;;;;;;;12.75;11.75;;;;;;;;5077408;27;45900;-77
2021/10/19 07:36:29;;;;;;;;;15.50;11.00;;;;;;;;5074875;27;46613;-78
2021/10/19 07:38:54;;;;;;;;;12.25;11.25;;;;;;;;5080152;27;45293;-78
2021/10/19 07:41:19;;;;;;;;;16.25;14.75;;;;;;;;5077205;27;45255;-78
2021/10/19 07:43:44;;;;;;;;;13.25;11.00;;;;;;;;5079303;27;45473;-78
2021/10/19 07:46:09;;;;;;;;;15.75;12.75;;;;;;;;5079205;27;45413;-78
2021/10/19 07:48:35;;;;;;;;;14.00;13.75;;;;;;;;5073494;27;45273;-79
2021/10/19 07:51:00;;;;;;;;;10.50;9.25;;;;;;;;5080628;27;45213;-80
2021/10/19 07:53:25;;;;;;;;;15.00;12.00;;;;;;;;5078992;27;45462;-78
2021/10/19 07:55:51;;;;;;;;;12.00;12.00;;;;;;;;5078048;27;46298;-79
2021/10/19 07:58:16;;;;;;;;;13.50;11.75;;;;;;;;5078371;27;45398;-78
2021/10/19 08:00:41;;;;;;;;;14.50;14.50;;;;;;;;5073386;27;45328;-78
2021/10/19 08:03:06;;;;;;;;;13.25;12.50;;;;;;;;5080030;27;45346;-78
2021/10/19 08:05:33;;;;;;;;;18.50;15.00;;;;;;;;5076873;27;45438;-79
2021/10/19 08:08:08;;;;;;;;;15.25;14.75;;;;;;;;5079360;27;45447;-78
2021/10/19 08:10:34;;;;;;;;;9.75;8.75;;;;;;;;5077847;27;45514;-79
2021/10/19 08:12:59;;;;;;;;;16.75;14.75;;;;;;;;5058300;27;45303;-77
2021/10/19 08:15:24;;;;;;;;;16.75;12.75;;;;;;;;5075347;27;45440;-77
2021/10/19 08:17:49;;;;;;;;;12.00;12.00;;;;;;;;5080969;27;45231;-79
2021/10/19 08:20:15;;;;;;;;;11.75;10.75;;;;;;;;5078571;27;45276;-79
2021/10/19 08:22:41;;;;;;;;;13.75;13.75;;;;;;;;5078437;27;45532;-77
2021/10/19 08:25:08;;;;;;;;;16.00;14.25;;;;;;;;5077125;27;45460;-79
2021/10/19 08:27:34;;;;;;;;;21.25;15.00;;;;;;;;5073524;27;45562;-78
2021/10/19 08:29:59;;;;;;;;;15.75;12.75;;;;;;;;5079827;27;45348;-78
2021/10/19 08:32:24;;;;;;;;;17.00;14.50;;;;;;;;5077707;27;45374;-79
2021/10/19 08:34:50;;;;;;;;;15.00;14.00;;;;;;;;5077536;27;45374;-78
2021/10/19 08:37:15;;;;;;;;;13.00;13.00;;;;;;;;5078118;27;45393;-78
2021/10/19 08:39:41;;;;;;;;;19.50;15.00;;;;;;;;5072469;27;45330;-78
2021/10/19 08:42:06;;;;;;;;;12.50;12.50;;;;;;;;5079706;27;45203;-78
2021/10/19 08:44:31;;;;;;;;;12.25;12.25;;;;;;;;5078019;27;46296;-79
2021/10/19 08:46:57;;;;;;;;;10.50;10.50;;;;;;;;5077394;27;45362;-78
2021/10/19 08:49:22;;;;;;;;;12.00;12.00;;;;;;;;5077293;27;45398;-79
2021/10/19 08:51:47;;;;;;;;;16.25;13.00;;;;;;;;5074189;27;45289;-78
2021/10/19 08:54:13;;;;;;;;;14.50;11.25;;;;;;;;5076956;27;46677;-78
2021/10/19 08:56:42;;;;;;;;;12.75;11.75;;;;;;;;5078164;27;45392;-78
2021/10/19 08:59:07;;;;;;;;;18.75;11.25;;;;;;;;5085782;27;45520;-78
2021/10/19 09:01:34;;;;;;;;;12.75;11.00;;;;;;;;5085965;27;45212;-76
2021/10/19 09:03:59;;;;;;;;;14.50;12.25;;;;;;;;5074270;27;46394;-77
2021/10/19 09:06:32;;;;;;;;;13.00;12.25;;;;;;;;5074130;27;45400;-77
2021/10/19 09:09:01;;;;;;;;;12.75;12.75;;;;;;;;5079063;27;45355;-78
2021/10/19 09:11:27;;;;;;;;;14.25;13.25;;;;;;;;5077214;27;45341;-77
2021/10/19 09:13:53;;;;;;;;;11.50;11.50;;;;;;;;5075082;27;46318;-79
2021/10/19 09:16:33;;;;;;;;;8.75;8.75;;;;;;;;5077384;27;45784;-78
2021/10/19 09:19:01;;;;;;;;;12.00;12.00;;;;;;;;5074426;27;45260;-78
2021/10/19 09:21:30;;;;;;;;;10.25;10.25;;;;;;;;5074521;27;45324;-78
2021/10/19 09:24:12;;;;;;;;;11.50;10.00;;;;;;;;5078067;27;46802;-78
2021/10/19 09:26:38;;;;;;;;;14.50;13.00;;;;;;;;5076361;27;45411;-77
2021/10/19 09:29:09;;;;;;;;;12.75;10.75;;;;;;;;5075026;27;45420;-78
2021/10/19 09:31:37;;;;;;;;;15.50;15.50;;;;;;;;5077138;27;45418;-79
2021/10/19 09:34:06;;;;;;;;;15.50;13.75;;;;;;;;5076606;27;45402;-78
2021/10/19 09:36:32;;;;;;;;;14.25;13.25;;;;;;;;5073250;27;45398;-78
2021/10/19 09:38:58;;;;;;;;;11.50;11.50;;;;;;;;5079084;27;45394;-78
2021/10/19 09:41:23;;;;;;;;;13.00;13.00;;;;;;;;5087616;27;45296;-78
2021/10/19 09:43:48;;;;;;;;;16.00;12.00;;;;;;;;5083248;27;47028;-79
2021/10/19 09:46:13;;;;;;;;;19.75;16.75;;;;;;;;5059928;27;45473;-77
2021/10/19 09:48:40;;;;;;;;;11.50;11.50;;;;;;;;5054728;27;45465;-79
2021/10/19 09:51:05;;;;;;;;;17.75;15.50;;;;;;;;5078464;27;45910;-79
2021/10/19 09:53:31;;;;;;;;;7.75;6.75;;;;;;;;5058026;28;46238;-79
2021/10/19 09:55:57;;;;;;;;;13.75;12.75;;;;;;;;5077054;27;45399;-79
2021/10/19 09:58:25;;;;;;;;;16.00;12.50;;;;;;;;5077586;27;49010;-79
2021/10/19 10:00:51;;;;;;;;;11.00;11.00;;;;;;;;5072733;27;45610;-78
2021/10/19 10:03:16;;;;;;;;;10.75;10.75;;;;;;;;5075205;27;46204;-80
2021/10/19 10:05:42;;;;;;;;;13.75;10.75;;;;;;;;5078088;27;45502;-79
2021/10/19 10:08:17;;;;;;;;;15.75;13.50;;;;;;;;5074933;27;45338;-79
2021/10/19 10:10:43;;;;;;;;;10.25;8.25;;;;;;;;5076691;27;45399;-79
2021/10/19 10:13:14;;;;;;;;;9.67;9.67;;;;;;;;5077023;27;45566;-77
2021/10/19 10:15:39;;;;;;;;;9.00;9.00;;;;;;;;5060424;27;45507;-78
2021/10/19 10:18:06;;;;;;;;;12.25;11.00;;;;;;;;5081972;27;45518;-77
2021/10/19 10:20:36;;;;;;;;;12.00;12.00;;;;;;;;5078694;27;45542;-78
2021/10/19 10:23:13;;;;;;;;;13.00;13.00;;;;;;;;5078356;27;46708;-77
2021/10/19 10:25:38;;;;;;;;;11.33;9.00;;;;;;;;5078447;27;47324;-77
2021/10/19 10:28:14;;;;;;;;;11.67;11.67;;;;;;;;5077935;27;45511;-79
2021/10/19 10:30:40;;;;;;;;;9.33;9.00;;;;;;;;5058940;27;45216;-78
2021/10/19 10:33:09;;;;;;;;;12.50;11.50;;;;;;;;5081166;27;46190;-79
2021/10/19 10:35:40;;;;;;;;;11.50;10.50;;;;;;;;5077173;27;45351;-78
2021/10/19 10:38:06;;;;;;;;;10.00;9.67;;;;;;;;5078615;27;45592;-79
2021/10/19 10:40:31;;;;;;;;;14.50;13.25;;;;;;;;5076376;27;45536;-79
2021/10/19 10:42:57;;;;;;;;;8.00;6.75;;;;;;;;5089216;27;46472;-77
2021/10/19 10:45:22;;;;;;;;;13.00;11.25;;;;;;;;5075745;27;45352;-78
2021/10/19 10:47:53;;;;;;;;;12.33;12.00;;;;;;;;5076642;27;45482;-78
2021/10/19 10:50:19;;;;;;;;;10.00;9.00;;;;;;;;5076701;27;45476;-77
2021/10/19 10:52:44;;;;;;;;;12.33;12.33;;;;;;;;5076385;27;45444;-79
2021/10/19 10:55:13;;;;;;;;;9.50;9.50;;;;;;;;5057119;27;45416;-79
2021/10/19 10:57:42;;;;;;;;;12.50;10.00;;;;;;;;5055356;27;45331;-79
2021/10/19 11:00:09;;;;;;;;;18.75;15.50;;;;;;;;5076535;27;45265;-77
2021/10/19 11:02:34;;;;;;;;;13.50;13.50;;;;;;;;5075409;27;46319;-79
2021/10/19 11:05:00;;;;;;;;;14.33;13.00;;;;;;;;5077540;27;45427;-79
2021/10/19 11:07:25;;;;;;;;;15.00;12.67;;;;;;;;5083910;27;45511;-79
2021/10/19 11:09:50;;;;;;;;;11.00;9.67;;;;;;;;5073154;27;45438;-77
2021/10/19 11:12:18;;;;;;;;;13.33;12.00;;;;;;;;5075168;27;46338;-77
2021/10/19 11:14:43;;;;;;;;;13.33;12.67;;;;;;;;5078302;27;45489;-78
2021/10/19 11:17:09;;;;;;;;;15.33;11.33;;;;;;;;5077231;27;45353;-78
2021/10/19 11:19:35;;;;;;;;;12.33;10.00;;;;;;;;5077563;27;47039;-79
2021/10/19 11:22:07;;;;;;;;;10.67;10.67;;;;;;;;5077579;27;47267;-74
2021/10/19 11:24:34;;;;;;;;;12.33;12.33;;;;;;;;5074619;27;45375;-77
2021/10/19 11:27:03;;;;;;;;;11.00;11.00;;;;;;;;5080989;27;45389;-79
2021/10/19 11:29:37;;;;;;;;;14.33;12.67;;;;;;;;5078669;27;45347;-78
2021/10/19 11:32:02;;;;;;;;;11.67;10.00;;;;;;;;5078777;27;46085;-78
2021/10/19 11:34:27;;;;;;;;;14.67;12.00;;;;;;;;5078266;27;45486;-77
2021/10/19 11:36:53;;;;;;;;;12.00;12.00;;;;;;;;5076831;27;45447;-78
2021/10/19 11:39:19;;;;;;;;;8.67;8.33;;;;;;;;5078299;27;45268;-78
2021/10/19 11:41:48;;;;;;;;;13.67;12.00;;;;;;;;5080883;27;45884;-78
2021/10/19 11:44:14;;;;;;;;;11.67;11.67;;;;;;;;5078391;27;45466;-78
2021/10/19 11:46:40;;;;;;;;;10.00;9.33;;;;;;;;5078086;27;45342;-78
2021/10/19 11:49:15;;;;;;;;;13.00;12.00;;;;;;;;5077515;27;45550;-79
2021/10/19 11:51:49;;;;;;;;;12.00;11.00;;;;;;;;5058102;27;46453;-79
2021/10/19 11:54:15;;;;;;;;;11.33;9.00;;;;;;;;5078183;27;45418;-79
2021/10/19 11:56:40;;;;;;;;;10.00;8.67;;;;;;;;5079150;27;45397;-79
2021/10/19 11:59:08;;;;;;;;;13.67;10.00;;;;;;;;5077362;27;45419;-78
2021/10/19 12:01:38;;;;;;;;;11.67;10.00;;;;;;;;5078314;27;45552;-78
2021/10/19 12:04:04;;;;;;;;;11.33;11.33;;;;;;;;5076627;27;45486;-79
2021/10/19 12:06:31;;;;;;;;;12.00;12.00;;;;;;;;5074586;27;47717;-79
2021/10/19 12:09:08;;;;;;;;;10.00;10.00;;;;;;;;5079536;27;45356;-79
2021/10/19 12:11:34;;;;;;;;;9.00;8.00;;;;;;;;5078341;27;45788;-79
2021/10/19 12:13:59;;;;;;;;;8.67;7.00;;;;;;;;5078196;27;45513;-77
2021/10/19 12:16:26;;;;;;;;;11.67;9.33;;;;;;;;5078463;27;45328;-77
2021/10/19 12:18:52;;;;;;;;;9.67;9.00;;;;;;;;5074448;27;45471;-78
2021/10/19 12:21:17;;;;;;;;;7.00;7.00;;;;;;;;5077239;27;46338;-79
2021/10/19 12:23:53;;;;;;;;;7.67;7.33;;;;;;;;5081639;27;45477;-78
2021/10/19 12:26:20;;;;;;;;;11.00;9.33;;;;;;;;5078130;27;45415;-77
2021/10/19 12:28:49;;;;;;;;;6.00;6.00;;;;;;;;5078075;27;45694;-78
2021/10/19 12:31:15;;;;;;;;;7.00;7.00;;;;;;;;5077702;27;45560;-79
2021/10/19 12:33:40;;;;;;;;;8.00;6.00;;;;;;;;5074447;27;45343;-78
2021/10/19 12:36:06;;;;;;;;;8.67;8.33;;;;;;;;5080222;27;45461;-78
2021/10/19 12:38:42;;;;;;;;;8.33;8.33;;;;;;;;5077290;27;45356;-79
2021/10/19 12:41:16;;;;;;;;;8.33;8.00;;;;;;;;5078039;27;45385;-78
2021/10/19 12:43:44;;;;;;;;;11.33;9.00;;;;;;;;5078685;27;45519;-78
2021/10/19 12:46:09;;;;;;;;;6.33;6.33;;;;;;;;5078262;27;45247;-79
2021/10/19 12:48:38;;;;;;;;;7.00;4.00;;;;;;;;5071617;27;45624;-76
2021/10/19 12:51:07;;;;;;;;;8.00;8.00;;;;;;;;5080015;27;46627;-79
2021/10/19 12:53:33;;;;;;;;;5.00;5.00;;;;;;;;5077193;27;48685;-79
2021/10/19 12:55:58;;;;;;;;;7.33;7.00;;;;;;;;5080356;27;45341;-77
2021/10/19 12:58:23;;;;;;;;;7.67;7.33;;;;;;;;5087499;27;45480;-79
2021/10/19 13:00:49;;;;;;;;;5.33;5.33;;;;;;;;5073998;27;46059;-79
2021/10/19 13:03:14;;;;;;;;;6.67;6.00;;;;;;;;5077349;27;45290;-78
2021/10/19 13:05:39;;;;;;;;;9.00;6.00;;;;;;;;5078451;27;45287;-77
2021/10/19 13:08:05;;;;;;;;;6.67;6.67;;;;;;;;5077574;27;45433;-78
2021/10/19 13:10:30;;;;;;;;;5.67;5.67;;;;;;;;5077505;27;45980;-78
2021/10/19 13:12:56;;;;;;;;;5.00;5.00;;;;;;;;5074671;27;45290;-77
2021/10/19 13:15:21;;;;;;;;;6.00;5.67;;;;;;;;5076012;27;45284;-78
2021/10/19 13:17:47;;;;;;;;;3.67;3.67;;;;;;;;5077942;27;45566;-78
2021/10/19 13:20:14;;;;;;;;;4.00;4.00;;;;;;;;5077812;27;46149;-78
2021/10/19 13:22:39;;;;;;;;;5.33;5.33;;;;;;;;5078269;27;45656;-78
2021/10/19 13:25:05;;;;;;;;;5.33;5.33;;;;;;;;5076855;27;45371;-78
2021/10/19 13:27:30;;;;;;;;;6.00;5.00;;;;;;;;5073638;27;45406;-77
2021/10/19 13:29:55;;;;;;;;;6.00;5.67;;;;;;;;5078848;27;45413;-78
2021/10/19 13:32:20;;;;;;;;;5.33;4.00;;;;;;;;5076596;27;45203;-77
2021/10/19 13:34:45;;;;;;;;;4.67;4.67;;;;;;;;5076812;27;45544;-78
2021/10/19 13:37:11;;;;;;;;;6.33;6.33;;;;;;;;5077458;27;45359;-77
2021/10/19 13:39:36;;;;;;;;;5.67;5.67;;;;;;;;5072700;27;47904;-78
2021/10/19 13:42:01;;;;;;;;;4.00;4.00;;;;;;;;5060953;28;45348;-77
2021/10/19 13:44:26;;;;;;;;;6.00;6.00;;;;;;;;5078614;27;45438;-80
2021/10/19 13:46:52;;;;;;;;;10.00;6.33;;;;;;;;5090147;27;45593;-78
2021/10/19 13:49:17;;;;;;;;;5.00;4.33;;;;;;;;5087590;27;46584;-78
2021/10/19 13:51:42;;;;;;;;;4.67;4.67;;;;;;;;5054942;27;45519;-79
2021/10/19 13:54:08;;;;;;;;;2.67;2.67;;;;;;;;5078987;27;45378;-79
2021/10/19 13:56:35;;;;;;;;;7.33;7.00;;;;;;;;5078944;27;45496;-78
2021/10/19 13:59:00;;;;;;;;;6.67;6.67;;;;;;;;5078130;27;46474;-78
2021/10/19 14:01:25;;;;;;;;;2.33;2.33;;;;;;;;5086529;27;45632;-79
2021/10/19 14:03:52;;;;;;;;;6.33;6.33;;;;;;;;5072742;27;45411;-79
2021/10/19 14:06:17;;;;;;;;;4.33;4.33;;;;;;;;5076410;27;45572;-79
2021/10/19 14:08:43;;;;;;;;;3.67;3.67;;;;;;;;5077833;27;46272;-79
2021/10/19 14:11:08;;;;;;;;;5.00;4.33;;;;;;;;5076840;27;45391;-78
2021/10/19 14:13:36;;;;;;;;;5.33;5.33;;;;;;;;5076159;27;45424;-78
2021/10/19 14:16:02;;;;;;;;;5.33;5.33;;;;;;;;5068187;28;45340;-79